createdAt,value
2022-10-14T00:02:07.545Z,19.42
2022-10-14T00:04:36.925Z,18.40
2022-10-14T00:07:06.410Z,19.40
2022-10-14T00:09:35.923Z,25.17
2022-10-14T00:12:05.597Z,19.90
2022-10-14T00:14:34.897Z,22.95
2022-10-14T00:17:05.936Z,21.45
2022-10-14T00:22:04.453Z,20.58
2022-10-14T00:24:34.508Z,23.90
2022-10-14T00:27:03.888Z,20.95
2022-10-14T00:29:33.447Z,23.25
2022-10-14T00:32:05.095Z,18.15
2022-10-14T00:34:34.514Z,22.45
2022-10-14T00:37:04.596Z,24.77
2022-10-14T00:39:33.934Z,22.48
2022-10-14T00:42:03.370Z,26.25
2022-10-14T00:45:00.727Z,24.20
2022-10-14T00:47:32.168Z,21.40
2022-10-14T00:50:02.508Z,22.35
2022-10-14T00:52:32.216Z,24.98
2022-10-14T00:55:06.729Z,26.95
2022-10-14T00:57:38.216Z,21.67
2022-10-14T01:00:10.025Z,25.50
2022-10-14T01:02:41.370Z,26.25
2022-10-14T01:05:13.133Z,29.50
2022-10-14T01:08:03.531Z,22.33
2022-10-14T01:10:41.098Z,21.73
2022-10-14T01:13:22.211Z,23.95
2022-10-14T01:16:04.831Z,22.42
2022-10-14T01:18:53.569Z,25.92
2022-10-14T01:21:29.103Z,28.73
2022-10-14T01:24:33.269Z,22.75
2022-10-14T01:27:22.810Z,26.88
2022-10-14T01:30:16.006Z,23.97
2022-10-14T01:33:07.736Z,18.85
2022-10-14T01:35:45.265Z,26.10
2022-10-14T01:38:19.030Z,23.65
2022-10-14T01:40:54.901Z,25.17
2022-10-14T01:43:27.248Z,30.15
2022-10-14T01:46:00.862Z,24.45
2022-10-14T01:48:33.578Z,27.60
2022-10-14T01:51:06.945Z,23.27
2022-10-14T01:53:41.269Z,24.73
2022-10-14T01:56:13.913Z,26.48
2022-10-14T01:58:43.841Z,22.50
2022-10-14T02:01:14.827Z,25.70
2022-10-14T02:03:46.342Z,28.33
2022-10-14T02:06:22.955Z,24.25
2022-10-14T02:09:03.265Z,24.80
2022-10-14T02:11:39.527Z,24.23
2022-10-14T02:14:19.099Z,27.33
2022-10-14T02:16:59.190Z,22.30
2022-10-14T02:19:33.534Z,25.63
2022-10-14T02:22:09.588Z,25.10
2022-10-14T02:24:42.652Z,25.88
2022-10-14T02:27:15.906Z,28.27
2022-10-14T02:29:48.151Z,26.90
2022-10-14T02:32:22.512Z,29.30
2022-10-14T02:34:54.917Z,25.60
2022-10-14T02:37:27.210Z,25.17
2022-10-14T02:40:04.335Z,27.10
2022-10-14T02:42:34.454Z,23.48
2022-10-14T02:45:04.133Z,23.73
2022-10-14T02:47:34.944Z,27.65
2022-10-14T02:50:05.512Z,30.25
2022-10-14T02:52:35.517Z,30.48
2022-10-14T02:55:05.060Z,24.30
2022-10-14T02:57:34.942Z,25.67
2022-10-14T03:00:04.477Z,24.70
2022-10-14T03:02:35.319Z,27.08
2022-10-14T03:05:05.197Z,24.10
2022-10-14T03:07:34.452Z,30.27
2022-10-14T03:10:04.434Z,23.40
2022-10-14T03:12:34.946Z,23.58
2022-10-14T03:15:04.940Z,25.25
2022-10-14T03:17:35.713Z,27.20
2022-10-14T03:20:06.680Z,34.30
2022-10-14T03:22:36.178Z,31.35
2022-10-14T03:25:08.681Z,30.00
2022-10-14T03:27:37.922Z,26.55
2022-10-14T03:30:09.354Z,23.98
2022-10-14T03:32:40.388Z,31.02
2022-10-14T03:35:10.885Z,31.27
2022-10-14T03:37:40.264Z,27.67
2022-10-14T03:40:11.072Z,31.20
2022-10-14T03:42:40.642Z,30.55
2022-10-14T03:45:10.743Z,27.63
2022-10-14T03:47:41.497Z,33.03
2022-10-14T03:50:11.509Z,24.08
2022-10-14T03:52:46.409Z,24.13
2022-10-14T03:55:16.548Z,31.20
2022-10-14T03:57:45.928Z,31.13
2022-10-14T04:00:16.855Z,29.42
2022-10-14T04:02:47.741Z,27.77
2022-10-14T04:05:17.757Z,24.20
2022-10-14T04:07:47.126Z,27.45
2022-10-14T04:10:16.574Z,32.17
2022-10-14T04:12:46.486Z,29.53
2022-10-14T04:15:15.779Z,31.45
2022-10-14T04:17:46.878Z,30.80
2022-10-14T04:20:17.361Z,32.10
2022-10-14T04:22:46.872Z,29.75
2022-10-14T04:25:16.401Z,37.67
2022-10-14T04:27:46.444Z,29.55
2022-10-14T04:30:15.686Z,32.05
2022-10-14T04:32:44.955Z,29.17
2022-10-14T04:35:16.435Z,29.42
2022-10-14T04:37:45.798Z,32.30
2022-10-14T04:40:15.880Z,33.03
2022-10-14T04:42:45.246Z,29.95
2022-10-14T04:45:14.526Z,34.30
2022-10-14T04:47:48.457Z,37.97
2022-10-14T04:50:20.554Z,34.10
2022-10-14T04:52:50.211Z,37.38
2022-10-14T04:55:19.574Z,37.03
2022-10-14T04:57:49.569Z,34.45
2022-10-14T05:00:19.145Z,31.73
2022-10-14T05:02:48.406Z,31.33
2022-10-14T05:05:19.580Z,31.17
2022-10-14T05:10:18.525Z,36.33
2022-10-14T05:12:47.952Z,37.20
2022-10-14T05:15:17.450Z,37.97
2022-10-14T05:17:47.336Z,38.20
2022-10-14T05:20:16.867Z,35.88
2022-10-14T05:22:47.761Z,38.80
2022-10-14T05:25:18.001Z,34.65
2022-10-14T05:27:47.352Z,37.75
2022-10-14T05:30:17.318Z,33.13
2022-10-14T05:32:46.558Z,34.75
2022-10-14T05:35:22.072Z,35.75
2022-10-14T05:38:05.643Z,35.83
2022-10-14T05:40:34.917Z,39.78
2022-10-14T05:43:04.865Z,41.85
2022-10-14T05:45:34.146Z,44.53
2022-10-14T05:48:03.675Z,42.17
2022-10-14T05:50:32.940Z,36.47
2022-10-14T05:53:03.640Z,42.78
2022-10-14T05:55:33.574Z,37.63
2022-10-14T05:58:03.163Z,39.72
2022-10-14T06:00:32.808Z,39.72
2022-10-14T06:03:03.412Z,40.25
2022-10-14T06:05:32.841Z,38.70
2022-10-14T06:08:03.575Z,49.35
2022-10-14T06:13:01.959Z,34.88
2022-10-14T06:15:31.451Z,37.00
2022-10-14T06:18:01.317Z,34.73
2022-10-14T06:20:30.968Z,45.63
2022-10-14T06:23:01.713Z,32.60
2022-10-14T06:25:33.216Z,43.58
2022-10-14T06:28:04.804Z,34.70
2022-10-14T06:30:34.984Z,36.90
2022-10-14T06:33:04.288Z,46.15
2022-10-14T06:35:33.682Z,45.25
2022-10-14T06:38:03.621Z,45.73
2022-10-14T06:40:34.367Z,53.08
2022-10-14T06:43:04.289Z,49.13
2022-10-14T06:45:33.695Z,48.67
2022-10-14T06:48:04.730Z,43.60
2022-10-14T06:50:34.722Z,49.22
2022-10-14T06:53:03.989Z,50.05
2022-10-14T06:55:35.053Z,55.22
2022-10-14T06:58:05.011Z,45.83
2022-10-14T07:00:34.385Z,42.63
2022-10-14T07:03:04.240Z,56.13
2022-10-14T07:05:34.335Z,43.20
2022-10-14T07:08:03.713Z,60.35
2022-10-14T07:10:34.732Z,45.50
2022-10-14T07:13:07.464Z,41.40
2022-10-14T07:15:36.789Z,39.60
2022-10-14T07:18:06.854Z,47.42
2022-10-14T07:20:36.478Z,47.97
2022-10-14T07:23:05.868Z,45.03
2022-10-14T07:25:37.528Z,48.30
2022-10-14T07:28:07.484Z,44.17
2022-10-14T07:30:37.001Z,47.60
2022-10-14T07:33:06.594Z,45.58
2022-10-14T07:35:35.986Z,45.10
2022-10-14T07:38:05.877Z,47.57
2022-10-14T07:40:36.605Z,44.53
2022-10-14T07:43:06.100Z,43.30
2022-10-14T07:45:36.662Z,44.28
2022-10-14T07:48:06.389Z,38.80
2022-10-14T07:50:36.290Z,44.58
2022-10-14T07:53:05.728Z,38.25
2022-10-14T07:55:37.358Z,46.70
2022-10-14T08:00:37.220Z,48.67
2022-10-14T08:03:07.337Z,49.08
2022-10-14T08:05:38.400Z,41.03
2022-10-14T08:08:08.422Z,43.05
2022-10-14T08:10:40.684Z,42.28
2022-10-14T08:13:10.187Z,51.17
2022-10-14T08:15:43.006Z,45.03
2022-10-14T08:18:13.292Z,42.65
2022-10-14T08:23:17.454Z,50.30
2022-10-14T08:25:51.637Z,43.53
2022-10-14T08:28:20.935Z,36.17
2022-10-14T08:30:53.062Z,45.03
2022-10-14T08:33:22.308Z,42.33
2022-10-14T08:35:54.134Z,44.40
2022-10-14T08:38:26.472Z,41.65
2022-10-14T08:41:08.528Z,43.08
2022-10-14T08:43:42.486Z,42.20
2022-10-14T08:46:20.685Z,43.25
2022-10-14T08:48:52.067Z,40.05
2022-10-14T08:51:22.654Z,45.53
2022-10-14T08:53:56.520Z,46.50
2022-10-14T08:56:28.823Z,41.20
2022-10-14T09:01:45.036Z,41.40
2022-10-14T09:04:16.554Z,37.85
2022-10-14T09:06:49.298Z,46.88
2022-10-14T09:09:24.242Z,39.47
2022-10-14T09:12:00.060Z,41.97
2022-10-14T09:14:33.576Z,42.15
2022-10-14T09:17:09.150Z,39.92
2022-10-14T09:19:47.100Z,43.40
2022-10-14T09:22:17.633Z,46.30
2022-10-14T09:24:48.689Z,47.83
2022-10-14T09:27:22.472Z,41.90
2022-10-14T09:29:55.360Z,42.80
2022-10-14T09:32:30.891Z,42.38
2022-10-14T09:35:01.020Z,45.95
2022-10-14T09:37:32.224Z,40.95
2022-10-14T09:45:12.017Z,39.25
2022-10-14T09:47:51.517Z,39.20
2022-10-14T09:50:31.856Z,43.38
2022-10-14T09:53:09.344Z,41.38
2022-10-14T09:55:48.307Z,37.55
2022-10-14T09:58:31.076Z,43.38
2022-10-14T10:01:02.238Z,40.05
2022-10-14T10:03:34.082Z,38.53
2022-10-14T10:06:11.617Z,42.38
2022-10-14T10:08:43.239Z,42.53
2022-10-14T10:11:14.352Z,38.70
2022-10-14T10:13:48.478Z,41.20
2022-10-14T10:16:24.559Z,36.55
2022-10-14T10:18:55.829Z,40.33
2022-10-14T10:23:59.410Z,33.78
2022-10-14T10:26:32.308Z,45.83
2022-10-14T10:29:06.015Z,41.05
2022-10-14T10:31:51.944Z,39.85
2022-10-14T10:35:03.464Z,39.60
2022-10-14T10:37:34.944Z,32.97
2022-10-14T10:40:37.431Z,41.05
2022-10-14T10:43:22.048Z,32.28
2022-10-14T10:46:11.597Z,45.65
2022-10-14T10:48:48.271Z,36.20
2022-10-14T10:51:29.804Z,38.20
2022-10-14T10:54:15.850Z,35.83
2022-10-14T10:56:51.511Z,37.63
2022-10-14T10:59:45.317Z,40.53
2022-10-14T11:03:00.927Z,44.72
2022-10-14T11:05:56.247Z,35.45
2022-10-14T11:09:09.757Z,43.58
2022-10-14T11:12:08.095Z,41.20
2022-10-14T11:14:59.877Z,39.20
2022-10-14T11:17:35.794Z,39.47
2022-10-14T11:20:18.032Z,41.80
2022-10-14T11:22:59.878Z,41.65
2022-10-14T11:25:46.515Z,45.85
2022-10-14T11:28:25.567Z,35.58
2022-10-14T11:31:03.035Z,37.45
2022-10-14T11:33:46.001Z,41.33
2022-10-14T11:36:25.745Z,42.40
2022-10-14T11:39:33.324Z,34.83
2022-10-14T11:42:15.376Z,42.95
2022-10-14T11:44:45.659Z,40.83
2022-10-14T11:47:22.156Z,46.83
2022-10-14T11:49:59.486Z,34.25
2022-10-14T11:52:34.391Z,37.55
2022-10-14T11:55:09.840Z,32.20
2022-10-14T11:57:46.011Z,35.22
2022-10-14T12:00:18.016Z,38.22
2022-10-14T12:02:54.651Z,38.58
2022-10-14T12:05:31.975Z,47.20
2022-10-14T12:08:12.799Z,35.83
2022-10-14T12:10:46.917Z,35.72
2022-10-14T12:13:19.094Z,33.65
2022-10-14T12:15:51.960Z,37.92
2022-10-14T12:18:22.180Z,32.35
2022-10-14T12:20:57.493Z,33.45
2022-10-14T12:23:35.650Z,37.28
2022-10-14T12:26:11.268Z,40.85
2022-10-14T12:28:43.299Z,34.78
2022-10-14T12:31:36.883Z,36.95
2022-10-14T12:34:37.676Z,42.33
2022-10-14T12:37:45.623Z,33.08
2022-10-14T12:40:30.726Z,36.50
2022-10-14T12:43:15.647Z,30.05
2022-10-14T12:46:14.917Z,33.90
2022-10-14T12:48:51.851Z,28.95
2022-10-14T12:51:25.165Z,32.38
2022-10-14T12:54:06.571Z,22.13
2022-10-14T12:56:41.127Z,30.67
2022-10-14T12:59:21.970Z,22.75
2022-10-14T13:01:57.919Z,24.02
2022-10-14T13:04:28.655Z,27.08
2022-10-14T13:07:41.934Z,25.83
2022-10-14T13:10:46.947Z,26.15
2022-10-14T13:13:59.778Z,21.45
2022-10-14T13:17:12.065Z,28.58
2022-10-14T13:19:48.321Z,24.75
2022-10-14T13:22:47.569Z,22.80
2022-10-14T13:25:22.453Z,20.52
2022-10-14T13:28:03.749Z,25.88
2022-10-14T13:30:41.028Z,26.08
2022-10-14T13:33:18.005Z,20.73
2022-10-14T13:35:55.345Z,20.13
2022-10-14T13:38:25.726Z,21.25
2022-10-14T13:40:57.318Z,19.02
2022-10-14T13:43:30.222Z,15.75
2022-10-14T13:46:07.119Z,20.00
2022-10-14T13:48:40.750Z,18.25
2022-10-14T13:51:42.409Z,21.00
2022-10-14T13:54:18.522Z,21.67
2022-10-14T13:57:38.375Z,27.55
2022-10-14T14:00:28.148Z,20.27
2022-10-14T14:02:44.250Z,22.58
2022-10-14T14:05:20.328Z,24.85
2022-10-14T14:11:03.614Z,18.95
2022-10-14T14:13:34.201Z,21.63
2022-10-14T14:16:04.314Z,20.48
2022-10-14T14:21:30.554Z,21.20
2022-10-14T14:24:02.416Z,20.08
2022-10-14T14:26:36.337Z,19.05
2022-10-14T14:29:07.357Z,21.40
2022-10-14T14:34:28.535Z,20.60
2022-10-14T14:37:17.257Z,16.88
2022-10-14T14:39:59.010Z,21.65
2022-10-14T14:42:29.550Z,20.40
2022-10-14T14:45:04.800Z,19.33
2022-10-14T14:47:34.912Z,23.42
2022-10-14T14:53:01.741Z,23.83
2022-10-14T14:55:45.085Z,24.73
2022-10-14T14:58:26.049Z,23.83
2022-10-14T15:00:56.509Z,24.90
2022-10-14T15:03:28.245Z,27.10
2022-10-14T15:06:01.490Z,29.90
2022-10-14T15:08:34.454Z,22.88
2022-10-14T15:11:04.302Z,25.80
2022-10-14T15:13:45.947Z,33.60
2022-10-14T15:16:15.621Z,28.55
2022-10-14T15:18:44.906Z,29.27
2022-10-14T15:21:20.648Z,30.27
2022-10-14T15:24:03.564Z,37.38
2022-10-14T15:26:35.023Z,34.50
2022-10-14T15:29:13.033Z,34.40
2022-10-14T15:31:44.739Z,31.15
2022-10-14T15:34:21.007Z,41.03
2022-10-14T15:36:54.384Z,31.88
2022-10-14T15:39:24.292Z,31.42
2022-10-14T15:41:53.921Z,33.60
2022-10-14T15:44:23.601Z,36.47
2022-10-14T15:47:10.401Z,38.53
2022-10-14T15:49:43.115Z,35.35
2022-10-14T15:52:17.763Z,36.88
2022-10-14T15:54:49.496Z,35.58
2022-10-14T15:57:19.026Z,35.00
2022-10-14T15:59:48.304Z,49.08
2022-10-14T16:02:22.346Z,42.17
2022-10-14T16:05:18.973Z,42.47
2022-10-14T16:07:44.160Z,42.08
2022-10-14T16:10:16.091Z,44.33
2022-10-14T16:12:46.474Z,41.22
2022-10-14T16:15:28.305Z,40.58
2022-10-14T16:17:58.386Z,48.88
2022-10-14T16:20:28.172Z,36.65
2022-10-14T16:23:00.217Z,42.35
2022-10-14T16:25:34.851Z,38.20
2022-10-14T16:28:07.587Z,35.33
2022-10-14T16:30:41.201Z,42.08
2022-10-14T16:35:41.280Z,44.00
2022-10-14T16:38:13.127Z,47.65
2022-10-14T16:40:42.816Z,40.03
2022-10-14T16:43:12.354Z,39.03
2022-10-14T16:45:41.941Z,42.60
2022-10-14T16:48:11.659Z,43.30
2022-10-14T16:50:41.217Z,52.90
2022-10-14T16:53:29.065Z,45.47
2022-10-14T16:55:59.082Z,43.42
2022-10-14T16:58:29.172Z,43.58
2022-10-14T17:00:58.670Z,46.00
2022-10-14T17:03:28.442Z,50.60
2022-10-14T17:06:00.728Z,42.97
2022-10-14T17:08:32.099Z,46.30
2022-10-14T17:11:01.586Z,38.25
2022-10-14T17:13:31.607Z,42.45
2022-10-14T17:16:02.259Z,44.28
2022-10-14T17:18:34.849Z,40.00
2022-10-14T17:21:07.290Z,57.40
2022-10-14T17:23:41.432Z,41.13
2022-10-14T17:26:12.430Z,40.60
2022-10-14T17:28:43.074Z,45.75
2022-10-14T17:31:16.461Z,48.40
2022-10-14T17:33:46.377Z,53.85
2022-10-14T17:36:19.701Z,46.35
2022-10-14T17:38:52.690Z,46.17
2022-10-14T17:41:22.842Z,43.75
2022-10-14T17:43:53.408Z,49.20
2022-10-14T17:46:25.361Z,45.20
2022-10-14T17:48:56.660Z,54.90
2022-10-14T17:51:26.767Z,45.03
2022-10-14T17:53:58.853Z,43.20
2022-10-14T17:56:29.349Z,44.42
2022-10-14T17:59:07.573Z,51.17
2022-10-14T18:02:00.806Z,45.95
2022-10-14T18:04:29.233Z,53.25
2022-10-14T18:06:59.275Z,50.95
2022-10-14T18:09:30.289Z,51.47
2022-10-14T18:12:14.990Z,51.65
2022-10-14T18:14:45.108Z,56.83
2022-10-14T18:17:14.436Z,52.33
2022-10-14T18:19:47.275Z,49.00
2022-10-14T18:22:20.693Z,54.80
2022-10-14T18:24:52.367Z,54.10
2022-10-14T18:27:22.261Z,58.08
2022-10-14T18:29:51.991Z,58.13
2022-10-14T18:32:21.599Z,56.85
2022-10-14T18:34:51.205Z,54.17
2022-10-14T18:37:20.843Z,55.58
2022-10-14T18:39:51.566Z,51.60
2022-10-14T18:42:21.274Z,55.25
2022-10-14T18:44:50.841Z,56.77
2022-10-14T18:47:20.200Z,52.70
2022-10-14T18:49:49.968Z,56.95
2022-10-14T18:52:21.386Z,50.35
2022-10-14T18:54:52.782Z,51.13
2022-10-14T18:57:22.677Z,49.45
2022-10-14T18:59:52.653Z,52.33
2022-10-14T19:02:23.318Z,56.33
2022-10-14T19:04:53.182Z,55.63
2022-10-14T19:07:22.455Z,56.90
2022-10-14T19:09:57.030Z,57.83
2022-10-14T19:12:45.407Z,62.65
2022-10-14T19:15:14.922Z,59.60
2022-10-14T19:17:47.032Z,69.40
2022-10-14T19:20:17.754Z,58.20
2022-10-14T19:22:47.118Z,61.83
2022-10-14T19:25:17.997Z,56.22
2022-10-14T19:27:47.925Z,58.08
2022-10-14T19:30:17.254Z,58.95
2022-10-14T19:32:46.581Z,62.30
2022-10-14T19:37:53.490Z,59.67
2022-10-14T19:40:24.958Z,68.55
2022-10-14T19:42:54.334Z,68.55
2022-10-14T19:45:24.133Z,61.85
2022-10-14T19:47:53.406Z,64.40
2022-10-14T19:50:22.868Z,59.00
2022-10-14T19:52:52.985Z,64.15
2022-10-14T19:55:23.686Z,71.20
2022-10-14T19:57:56.337Z,61.83
2022-10-14T20:00:26.426Z,57.88
2022-10-14T20:02:55.793Z,62.55
2022-10-14T20:05:25.513Z,68.13
2022-10-14T20:07:55.561Z,62.92
2022-10-14T20:10:26.769Z,65.57
2022-10-14T20:12:57.298Z,61.47
2022-10-14T20:15:26.568Z,58.15
2022-10-14T20:17:56.580Z,62.30
2022-10-14T20:20:27.034Z,63.65
2022-10-14T20:22:56.977Z,61.10
2022-10-14T20:25:28.553Z,59.35
2022-10-14T20:27:58.653Z,67.65
2022-10-14T20:30:27.952Z,71.97
2022-10-14T20:32:57.434Z,59.08
2022-10-14T20:38:01.447Z,61.35
2022-10-14T20:40:32.630Z,70.93
2022-10-14T20:45:31.011Z,68.82
2022-10-14T20:48:00.688Z,59.63
2022-10-14T20:50:29.943Z,62.70
2022-10-14T20:53:01.539Z,71.97
2022-10-14T20:55:34.442Z,65.72
2022-10-14T20:58:03.810Z,65.88
2022-10-14T21:00:33.516Z,70.50
2022-10-14T21:03:02.789Z,77.75
2022-10-14T21:05:32.134Z,74.85
2022-10-14T21:08:02.132Z,61.08
2022-10-14T21:10:33.141Z,71.82
2022-10-14T21:13:03.025Z,70.80
2022-10-14T21:15:32.880Z,62.30
2022-10-14T21:18:02.197Z,71.95
2022-10-14T21:20:32.255Z,76.38
2022-10-14T21:23:01.594Z,63.00
2022-10-14T21:25:32.396Z,75.95
2022-10-14T21:28:02.458Z,74.13
2022-10-14T21:30:31.798Z,74.35
2022-10-14T21:33:01.085Z,71.72
2022-10-14T21:35:31.235Z,76.78
2022-10-14T21:38:00.625Z,74.63
2022-10-14T21:40:29.892Z,66.38
2022-10-14T21:43:00.973Z,76.25
2022-10-14T21:45:30.521Z,76.10
2022-10-14T21:48:00.127Z,72.47
2022-10-14T21:50:30.559Z,73.88
2022-10-14T21:53:00.215Z,69.60
2022-10-14T21:55:29.589Z,67.85
2022-10-14T21:58:00.960Z,71.82
2022-10-14T22:00:30.189Z,72.07
2022-10-14T22:03:00.224Z,67.05
2022-10-14T22:05:29.493Z,81.38
2022-10-14T22:07:58.920Z,64.90
2022-10-14T22:10:45.115Z,70.23
2022-10-14T22:13:15.873Z,69.63
2022-10-14T22:15:45.794Z,63.10
2022-10-14T22:18:15.133Z,63.97
2022-10-14T22:20:44.409Z,61.72
2022-10-14T22:23:14.900Z,62.58
2022-10-14T22:25:44.165Z,69.80
2022-10-14T22:28:14.934Z,68.78
2022-10-14T22:30:44.602Z,60.72
2022-10-14T22:33:13.953Z,68.50
2022-10-14T22:35:44.322Z,61.78
2022-10-14T22:38:14.433Z,72.78
2022-10-14T22:40:43.945Z,67.32
2022-10-14T22:43:14.680Z,71.60
2022-10-14T22:45:44.783Z,61.83
2022-10-14T22:48:14.044Z,61.25
2022-10-14T22:50:43.316Z,64.50
2022-10-14T22:53:13.203Z,67.22
2022-10-14T22:55:42.449Z,76.70
2022-10-14T22:58:12.862Z,60.38
2022-10-14T23:00:44.262Z,67.72
2022-10-14T23:03:13.901Z,70.25
2022-10-14T23:05:44.209Z,63.67
2022-10-14T23:08:15.148Z,68.50
2022-10-14T23:10:45.550Z,68.07
2022-10-14T23:13:14.963Z,66.80
2022-10-14T23:15:55.690Z,70.22
2022-10-14T23:18:25.798Z,67.22
2022-10-14T23:20:55.465Z,66.13
2022-10-14T23:23:25.118Z,67.65
2022-10-14T23:25:55.009Z,70.50
2022-10-14T23:28:24.351Z,70.78
2022-10-14T23:30:55.086Z,66.85
2022-10-14T23:35:53.754Z,68.05
2022-10-14T23:38:23.380Z,63.92
2022-10-14T23:40:53.227Z,66.22
2022-10-14T23:43:22.473Z,65.57
2022-10-14T23:48:23.123Z,62.10
2022-10-14T23:50:52.541Z,60.25
2022-10-14T23:53:22.753Z,60.90
2022-10-14T23:55:52.412Z,57.00
2022-10-14T23:58:21.700Z,60.80
